sensor_id;sensor_type;location;lat;lon;timestamp;pressure;altitude;pressure_sealevel;temperature;humidity
59831;BME280;45711;50.108;13.712;2023-06-10T00:00:04;97629.63;;;14.78;95.77
59831;BME280;45711;50.108;13.712;2023-06-10T00:02:31;97622.09;;;14.98;94.78
59831;BME280;45711;50.108;13.712;2023-06-10T00:05:02;97620.50;;;15.05;93.47
59831;BME280;45711;50.108;13.712;2023-06-10T00:07:30;97617.03;;;15.05;94.08
59831;BME280;45711;50.108;13.712;2023-06-10T00:09:59;97606.97;;;14.79;94.28
59831;BME280;45711;50.108;13.712;2023-06-10T00:12:25;97606.31;;;14.65;95.24
59831;BME280;45711;50.108;13.712;2023-06-10T00:14:54;97615.41;;;14.47;96.34
59831;BME280;45711;50.108;13.712;2023-06-10T00:17:22;97607.31;;;14.47;96.80
59831;BME280;45711;50.108;13.712;2023-06-10T00:19:48;97609.06;;;14.43;96.57
59831;BME280;45711;50.108;13.712;2023-06-10T00:22:16;97611.06;;;14.60;96.79
59831;BME280;45711;50.108;13.712;2023-06-10T00:24:45;97610.00;;;14.87;95.20
59831;BME280;45711;50.108;13.712;2023-06-10T00:27:10;97612.91;;;14.50;94.73
59831;BME280;45711;50.108;13.712;2023-06-10T00:29:41;97615.69;;;14.68;93.35
59831;BME280;45711;50.108;13.712;2023-06-10T00:32:07;97615.28;;;14.52;94.78
59831;BME280;45711;50.108;13.712;2023-06-10T00:34:33;97615.38;;;14.38;96.62
59831;BME280;45711;50.108;13.712;2023-06-10T00:36:59;97618.59;;;14.49;95.57
59831;BME280;45711;50.108;13.712;2023-06-10T00:39:25;97613.59;;;14.65;93.89
59831;BME280;45711;50.108;13.712;2023-06-10T00:41:55;97622.16;;;14.36;95.09
59831;BME280;45711;50.108;13.712;2023-06-10T00:44:21;97615.53;;;14.42;94.92
59831;BME280;45711;50.108;13.712;2023-06-10T00:46:46;97617.44;;;14.41;93.94
59831;BME280;45711;50.108;13.712;2023-06-10T00:49:12;97619.22;;;14.46;93.69
59831;BME280;45711;50.108;13.712;2023-06-10T00:51:42;97610.31;;;14.37;94.17
59831;BME280;45711;50.108;13.712;2023-06-10T00:54:07;97614.69;;;14.24;95.26
59831;BME280;45711;50.108;13.712;2023-06-10T00:56:36;97611.28;;;14.18;95.18
59831;BME280;45711;50.108;13.712;2023-06-10T00:59:03;97610.50;;;14.18;94.80
59831;BME280;45711;50.108;13.712;2023-06-10T01:01:29;97610.72;;;14.30;94.85
59831;BME280;45711;50.108;13.712;2023-06-10T01:03:57;97615.03;;;14.40;94.39
59831;BME280;45711;50.108;13.712;2023-06-10T01:06:29;97612.94;;;14.28;93.79
59831;BME280;45711;50.108;13.712;2023-06-10T01:09:10;97618.09;;;14.16;94.56
59831;BME280;45711;50.108;13.712;2023-06-10T01:11:43;97622.06;;;14.18;93.97
59831;BME280;45711;50.108;13.712;2023-06-10T01:14:13;97621.97;;;14.01;93.09
59831;BME280;45711;50.108;13.712;2023-06-10T01:16:44;97627.31;;;13.70;95.05
59831;BME280;45711;50.108;13.712;2023-06-10T01:19:11;97629.78;;;13.89;94.91
59831;BME280;45711;50.108;13.712;2023-06-10T01:21:39;97625.84;;;13.86;94.56
59831;BME280;45711;50.108;13.712;2023-06-10T01:24:07;97628.84;;;13.85;94.34
59831;BME280;45711;50.108;13.712;2023-06-10T01:26:36;97636.41;;;13.82;94.59
59831;BME280;45711;50.108;13.712;2023-06-10T01:29:15;97639.88;;;13.83;93.68
59831;BME280;45711;50.108;13.712;2023-06-10T01:31:52;97639.88;;;13.83;94.51
59831;BME280;45711;50.108;13.712;2023-06-10T01:34:23;97643.25;;;13.66;96.12
59831;BME280;45711;50.108;13.712;2023-06-10T01:36:52;97651.22;;;13.94;95.25
59831;BME280;45711;50.108;13.712;2023-06-10T01:39:25;97644.06;;;13.89;94.49
59831;BME280;45711;50.108;13.712;2023-06-10T01:41:52;97640.81;;;13.78;95.36
59831;BME280;45711;50.108;13.712;2023-06-10T01:44:19;97632.91;;;13.60;97.05
59831;BME280;45711;50.108;13.712;2023-06-10T01:46:45;97633.06;;;13.77;95.43
59831;BME280;45711;50.108;13.712;2023-06-10T01:49:11;97643.19;;;13.80;95.56
59831;BME280;45711;50.108;13.712;2023-06-10T01:51:40;97647.28;;;13.55;95.98
59831;BME280;45711;50.108;13.712;2023-06-10T01:54:07;97651.09;;;13.40;96.58
59831;BME280;45711;50.108;13.712;2023-06-10T01:56:35;97643.25;;;13.30;96.73
59831;BME280;45711;50.108;13.712;2023-06-10T01:59:01;97655.50;;;13.22;97.56
59831;BME280;45711;50.108;13.712;2023-06-10T02:01:29;97647.16;;;13.24;98.64
59831;BME280;45711;50.108;13.712;2023-06-10T02:03:55;97649.84;;;13.24;97.64
59831;BME280;45711;50.108;13.712;2023-06-10T02:06:21;97647.06;;;13.29;97.27
59831;BME280;45711;50.108;13.712;2023-06-10T02:08:48;97644.16;;;13.12;97.83
59831;BME280;45711;50.108;13.712;2023-06-10T02:11:17;97648.31;;;13.18;98.48
59831;BME280;45711;50.108;13.712;2023-06-10T02:13:43;97645.50;;;13.50;96.92
59831;BME280;45711;50.108;13.712;2023-06-10T02:16:12;97651.81;;;13.18;97.47
59831;BME280;45711;50.108;13.712;2023-06-10T02:18:38;97651.44;;;13.11;98.25
59831;BME280;45711;50.108;13.712;2023-06-10T02:21:06;97646.56;;;12.99;99.21
59831;BME280;45711;50.108;13.712;2023-06-10T02:23:32;97646.38;;;12.96;99.72
59831;BME280;45711;50.108;13.712;2023-06-10T02:26:02;97643.78;;;13.04;99.01
59831;BME280;45711;50.108;13.712;2023-06-10T02:28:29;97646.06;;;13.11;98.31
59831;BME280;45711;50.108;13.712;2023-06-10T02:30:58;97639.00;;;13.15;97.02
59831;BME280;45711;50.108;13.712;2023-06-10T02:33:26;97641.97;;;13.27;96.55
59831;BME280;45711;50.108;13.712;2023-06-10T02:35:52;97647.13;;;13.38;96.12
59831;BME280;45711;50.108;13.712;2023-06-10T02:38:18;97651.53;;;13.33;95.40
59831;BME280;45711;50.108;13.712;2023-06-10T02:40:51;97657.75;;;13.43;94.29
59831;BME280;45711;50.108;13.712;2023-06-10T02:43:16;97656.78;;;13.39;94.86
59831;BME280;45711;50.108;13.712;2023-06-10T02:45:46;97658.19;;;13.22;94.42
59831;BME280;45711;50.108;13.712;2023-06-10T02:48:15;97659.28;;;13.07;94.73
59831;BME280;45711;50.108;13.712;2023-06-10T02:50:43;97658.09;;;13.00;94.15
59831;BME280;45711;50.108;13.712;2023-06-10T02:53:09;97656.31;;;12.81;95.93
59831;BME280;45711;50.108;13.712;2023-06-10T02:55:48;97661.09;;;12.71;96.78
59831;BME280;45711;50.108;13.712;2023-06-10T02:58:17;97661.97;;;12.66;95.67
59831;BME280;45711;50.108;13.712;2023-06-10T03:00:46;97662.88;;;12.75;95.24
59831;BME280;45711;50.108;13.712;2023-06-10T03:03:12;97667.28;;;12.71;96.66
59831;BME280;45711;50.108;13.712;2023-06-10T03:05:43;97673.34;;;12.63;97.54
59831;BME280;45711;50.108;13.712;2023-06-10T03:08:11;97675.59;;;12.56;98.32
59831;BME280;45711;50.108;13.712;2023-06-10T03:10:39;97674.59;;;12.38;99.95
59831;BME280;45711;50.108;13.712;2023-06-10T03:13:08;97675.84;;;12.27;99.92
59831;BME280;45711;50.108;13.712;2023-06-10T03:15:35;97672.00;;;12.47;98.34
59831;BME280;45711;50.108;13.712;2023-06-10T03:18:06;97675.28;;;12.44;99.50
59831;BME280;45711;50.108;13.712;2023-06-10T03:20:34;97675.91;;;12.54;99.39
59831;BME280;45711;50.108;13.712;2023-06-10T03:23:02;97678.19;;;12.61;98.64
59831;BME280;45711;50.108;13.712;2023-06-10T03:25:38;97683.38;;;12.71;97.47
59831;BME280;45711;50.108;13.712;2023-06-10T03:28:04;97681.56;;;12.53;96.66
59831;BME280;45711;50.108;13.712;2023-06-10T03:30:46;97686.38;;;12.23;97.08
59831;BME280;45711;50.108;13.712;2023-06-10T03:33:16;97692.44;;;12.29;98.02
59831;BME280;45711;50.108;13.712;2023-06-10T03:35:42;97690.69;;;12.52;96.38
59831;BME280;45711;50.108;13.712;2023-06-10T03:38:09;97688.84;;;12.20;98.57
59831;BME280;45711;50.108;13.712;2023-06-10T03:40:38;97691.94;;;12.27;99.51
59831;BME280;45711;50.108;13.712;2023-06-10T03:43:15;97692.38;;;12.34;98.30
59831;BME280;45711;50.108;13.712;2023-06-10T03:45:44;97700.31;;;12.39;98.48
59831;BME280;45711;50.108;13.712;2023-06-10T03:48:10;97700.06;;;12.54;98.54
59831;BME280;45711;50.108;13.712;2023-06-10T03:50:41;97697.56;;;12.58;98.69
59831;BME280;45711;50.108;13.712;2023-06-10T03:53:10;97703.06;;;12.80;98.42
59831;BME280;45711;50.108;13.712;2023-06-10T03:55:35;97705.25;;;12.78;98.06
59831;BME280;45711;50.108;13.712;2023-06-10T03:58:01;97700.41;;;12.80;97.47
59831;BME280;45711;50.108;13.712;2023-06-10T04:00:27;97710.44;;;12.89;98.59
59831;BME280;45711;50.108;13.712;2023-06-10T04:02:54;97698.91;;;13.02;97.76
59831;BME280;45711;50.108;13.712;2023-06-10T04:05:23;97706.25;;;13.10;97.48
59831;BME280;45711;50.108;13.712;2023-06-10T04:07:50;97721.78;;;13.13;97.81
59831;BME280;45711;50.108;13.712;2023-06-10T04:10:16;97716.72;;;12.98;99.11
59831;BME280;45711;50.108;13.712;2023-06-10T04:12:42;97721.38;;;12.92;98.05
59831;BME280;45711;50.108;13.712;2023-06-10T04:15:10;97718.19;;;13.04;95.97
59831;BME280;45711;50.108;13.712;2023-06-10T04:17:37;97716.50;;;13.08;95.91
59831;BME280;45711;50.108;13.712;2023-06-10T04:20:05;97726.03;;;13.00;96.66
59831;BME280;45711;50.108;13.712;2023-06-10T04:22:33;97719.88;;;12.86;98.29
59831;BME280;45711;50.108;13.712;2023-06-10T04:25:00;97721.56;;;13.09;98.01
59831;BME280;45711;50.108;13.712;2023-06-10T04:27:29;97717.19;;;13.14;98.20
59831;BME280;45711;50.108;13.712;2023-06-10T04:29:56;97723.34;;;13.14;98.92
59831;BME280;45711;50.108;13.712;2023-06-10T04:32:22;97713.31;;;13.20;99.16
59831;BME280;45711;50.108;13.712;2023-06-10T04:34:49;97731.53;;;13.50;97.86
59831;BME280;45711;50.108;13.712;2023-06-10T04:37:16;97730.09;;;13.53;97.98
59831;BME280;45711;50.108;13.712;2023-06-10T04:39:43;97726.75;;;13.47;98.29
59831;BME280;45711;50.108;13.712;2023-06-10T04:42:13;97718.19;;;13.45;98.88
59831;BME280;45711;50.108;13.712;2023-06-10T04:44:41;97727.06;;;13.46;99.20
59831;BME280;45711;50.108;13.712;2023-06-10T04:47:08;97732.69;;;13.58;99.08
59831;BME280;45711;50.108;13.712;2023-06-10T04:49:39;97728.00;;;13.64;99.00
59831;BME280;45711;50.108;13.712;2023-06-10T04:52:09;97728.50;;;13.66;99.12
59831;BME280;45711;50.108;13.712;2023-06-10T04:54:35;97731.34;;;13.83;99.09
59831;BME280;45711;50.108;13.712;2023-06-10T04:57:01;97728.03;;;13.86;98.93
59831;BME280;45711;50.108;13.712;2023-06-10T04:59:29;97729.97;;;14.08;97.70
59831;BME280;45711;50.108;13.712;2023-06-10T05:01:57;97736.50;;;14.16;97.76
59831;BME280;45711;50.108;13.712;2023-06-10T05:04:25;97728.31;;;14.21;97.81
59831;BME280;45711;50.108;13.712;2023-06-10T05:06:53;97737.56;;;14.28;97.88
59831;BME280;45711;50.108;13.712;2023-06-10T05:09:21;97734.75;;;14.56;96.85
59831;BME280;45711;50.108;13.712;2023-06-10T05:11:47;97734.88;;;14.51;96.08
59831;BME280;45711;50.108;13.712;2023-06-10T05:14:20;97730.00;;;14.62;96.82
59831;BME280;45711;50.108;13.712;2023-06-10T05:16:57;97733.69;;;14.66;96.46
59831;BME280;45711;50.108;13.712;2023-06-10T05:19:36;97732.56;;;14.67;97.59
59831;BME280;45711;50.108;13.712;2023-06-10T05:22:08;97738.84;;;14.85;97.10
59831;BME280;45711;50.108;13.712;2023-06-10T05:24:37;97741.94;;;15.09;95.99
59831;BME280;45711;50.108;13.712;2023-06-10T05:27:06;97738.84;;;15.24;95.43
59831;BME280;45711;50.108;13.712;2023-06-10T05:29:33;97746.63;;;15.34;94.63
59831;BME280;45711;50.108;13.712;2023-06-10T05:32:10;97748.41;;;15.48;95.08
59831;BME280;45711;50.108;13.712;2023-06-10T05:34:36;97751.28;;;15.51;94.89
59831;BME280;45711;50.108;13.712;2023-06-10T05:37:14;97746.06;;;15.55;95.67
59831;BME280;45711;50.108;13.712;2023-06-10T05:39:43;97749.84;;;15.54;96.07
59831;BME280;45711;50.108;13.712;2023-06-10T05:42:09;97752.53;;;15.54;95.95
59831;BME280;45711;50.108;13.712;2023-06-10T05:44:37;97742.75;;;15.75;96.11
59831;BME280;45711;50.108;13.712;2023-06-10T05:47:39;97755.97;;;15.86;95.77
59831;BME280;45711;50.108;13.712;2023-06-10T05:50:06;97743.09;;;16.00;95.44
59831;BME280;45711;50.108;13.712;2023-06-10T05:52:32;97749.28;;;16.26;94.57
59831;BME280;45711;50.108;13.712;2023-06-10T05:55:06;97744.03;;;16.39;94.28
59831;BME280;45711;50.108;13.712;2023-06-10T05:57:32;97737.16;;;16.50;94.06
59831;BME280;45711;50.108;13.712;2023-06-10T05:59:59;97746.84;;;16.77;92.84
59831;BME280;45711;50.108;13.712;2023-06-10T06:02:25;97742.66;;;16.88;92.38
59831;BME280;45711;50.108;13.712;2023-06-10T06:04:55;97745.16;;;17.02;91.79
59831;BME280;45711;50.108;13.712;2023-06-10T06:07:23;97742.38;;;17.19;90.20
59831;BME280;45711;50.108;13.712;2023-06-10T06:10:03;97746.53;;;17.17;91.93
59831;BME280;45711;50.108;13.712;2023-06-10T06:12:28;97745.38;;;17.26;91.07
59831;BME280;45711;50.108;13.712;2023-06-10T06:14:54;97748.97;;;17.39;90.46
59831;BME280;45711;50.108;13.712;2023-06-10T06:17:20;97739.03;;;17.52;90.08
59831;BME280;45711;50.108;13.712;2023-06-10T06:19:46;97744.25;;;17.57;89.77
59831;BME280;45711;50.108;13.712;2023-06-10T06:22:14;97747.78;;;17.78;85.40
59831;BME280;45711;50.108;13.712;2023-06-10T06:24:40;97742.44;;;18.12;85.61
59831;BME280;45711;50.108;13.712;2023-06-10T06:27:06;97750.78;;;18.40;85.10
59831;BME280;45711;50.108;13.712;2023-06-10T06:29:32;97750.63;;;18.57;81.35
59831;BME280;45711;50.108;13.712;2023-06-10T06:32:00;97754.22;;;18.82;81.86
59831;BME280;45711;50.108;13.712;2023-06-10T06:34:26;97752.88;;;18.88;79.21
59831;BME280;45711;50.108;13.712;2023-06-10T06:37:04;97751.25;;;18.75;79.17
59831;BME280;45711;50.108;13.712;2023-06-10T06:47:43;97763.75;;;19.13;75.87
59831;BME280;45711;50.108;13.712;2023-06-10T06:49:44;97757.88;;;19.23;75.11
59831;BME280;45711;50.108;13.712;2023-06-10T06:52:17;97768.16;;;19.54;75.67
59831;BME280;45711;50.108;13.712;2023-06-10T06:54:52;97772.59;;;19.46;74.25
59831;BME280;45711;50.108;13.712;2023-06-10T06:57:23;97767.16;;;19.71;73.41
59831;BME280;45711;50.108;13.712;2023-06-10T06:59:58;97774.88;;;19.69;72.90
59831;BME280;45711;50.108;13.712;2023-06-10T07:03:19;97776.41;;;19.94;72.07
59831;BME280;45711;50.108;13.712;2023-06-10T07:05:55;97785.34;;;19.95;73.11
59831;BME280;45711;50.108;13.712;2023-06-10T07:15:25;97791.97;;;20.50;69.72
59831;BME280;45711;50.108;13.712;2023-06-10T07:21:30;97798.88;;;20.47;68.46
59831;BME280;45711;50.108;13.712;2023-06-10T07:27:34;97805.56;;;20.78;67.91
59831;BME280;45711;50.108;13.712;2023-06-10T07:30:08;97799.31;;;20.62;67.42
59831;BME280;45711;50.108;13.712;2023-06-10T07:32:37;97801.28;;;20.77;67.04
59831;BME280;45711;50.108;13.712;2023-06-10T07:35:06;97807.75;;;20.72;66.32
59831;BME280;45711;50.108;13.712;2023-06-10T07:37:37;97798.25;;;20.94;66.23
59831;BME280;45711;50.108;13.712;2023-06-10T07:43:31;97806.50;;;21.29;64.40
59831;BME280;45711;50.108;13.712;2023-06-10T07:46:01;97803.00;;;21.13;65.35
59831;BME280;45711;50.108;13.712;2023-06-10T07:48:32;97810.81;;;20.71;65.97
59831;BME280;45711;50.108;13.712;2023-06-10T07:51:09;97810.69;;;20.95;66.27
59831;BME280;45711;50.108;13.712;2023-06-10T07:53:45;97809.78;;;20.75;66.50
59831;BME280;45711;50.108;13.712;2023-06-10T07:56:38;97814.00;;;21.32;65.37
59831;BME280;45711;50.108;13.712;2023-06-10T07:59:21;97818.44;;;21.09;64.62
59831;BME280;45711;50.108;13.712;2023-06-10T08:02:06;97815.25;;;21.07;64.89
59831;BME280;45711;50.108;13.712;2023-06-10T08:04:41;97807.91;;;21.23;65.99
59831;BME280;45711;50.108;13.712;2023-06-10T08:07:09;97816.94;;;20.96;66.81
59831;BME280;45711;50.108;13.712;2023-06-10T08:13:04;97820.38;;;20.80;66.73
59831;BME280;45711;50.108;13.712;2023-06-10T08:15:38;97824.56;;;20.62;67.01
59831;BME280;45711;50.108;13.712;2023-06-10T08:18:15;97826.28;;;20.54;67.84
59831;BME280;45711;50.108;13.712;2023-06-10T08:20:55;97823.50;;;20.51;67.59
59831;BME280;45711;50.108;13.712;2023-06-10T08:23:33;97832.91;;;20.69;68.36
59831;BME280;45711;50.108;13.712;2023-06-10T08:26:26;97829.56;;;20.60;68.58
59831;BME280;45711;50.108;13.712;2023-06-10T08:29:06;97834.13;;;20.44;67.67
59831;BME280;45711;50.108;13.712;2023-06-10T08:31:53;97840.22;;;20.41;68.26
59831;BME280;45711;50.108;13.712;2023-06-10T08:34:39;97834.09;;;20.56;66.94
59831;BME280;45711;50.108;13.712;2023-06-10T08:37:25;97839.78;;;20.39;68.85
59831;BME280;45711;50.108;13.712;2023-06-10T08:40:04;97841.13;;;20.57;68.46
59831;BME280;45711;50.108;13.712;2023-06-10T08:42:44;97843.84;;;20.45;68.36
59831;BME280;45711;50.108;13.712;2023-06-10T08:45:19;97846.06;;;20.15;69.23
59831;BME280;45711;50.108;13.712;2023-06-10T08:47:53;97843.94;;;20.20;69.40
59831;BME280;45711;50.108;13.712;2023-06-10T08:50:25;97841.41;;;20.15;69.31
59831;BME280;45711;50.108;13.712;2023-06-10T08:53:16;97839.59;;;20.31;68.85
59831;BME280;45711;50.108;13.712;2023-06-10T08:55:45;97837.75;;;20.36;68.79
59831;BME280;45711;50.108;13.712;2023-06-10T08:58:15;97838.28;;;20.13;69.52
59831;BME280;45711;50.108;13.712;2023-06-10T09:00:41;97841.41;;;20.15;71.22
59831;BME280;45711;50.108;13.712;2023-06-10T09:03:20;97838.78;;;20.31;70.15
59831;BME280;45711;50.108;13.712;2023-06-10T09:06:13;97839.41;;;20.65;69.69
59831;BME280;45711;50.108;13.712;2023-06-10T09:08:44;97839.34;;;20.49;68.88
59831;BME280;45711;50.108;13.712;2023-06-10T09:11:15;97844.69;;;20.73;67.82
59831;BME280;45711;50.108;13.712;2023-06-10T09:13:44;97847.53;;;21.37;66.89
59831;BME280;45711;50.108;13.712;2023-06-10T09:16:09;97851.63;;;21.30;67.77
59831;BME280;45711;50.108;13.712;2023-06-10T09:18:38;97852.66;;;21.10;66.77
59831;BME280;45711;50.108;13.712;2023-06-10T09:21:04;97840.88;;;21.06;66.84
59831;BME280;45711;50.108;13.712;2023-06-10T09:23:34;97841.41;;;20.96;67.59
59831;BME280;45711;50.108;13.712;2023-06-10T09:26:01;97845.50;;;21.49;65.70
59831;BME280;45711;50.108;13.712;2023-06-10T09:28:29;97850.59;;;22.53;64.34
59831;BME280;45711;50.108;13.712;2023-06-10T09:31:05;97846.34;;;22.01;62.92
59831;BME280;45711;50.108;13.712;2023-06-10T09:33:34;97834.84;;;22.85;60.39
59831;BME280;45711;50.108;13.712;2023-06-10T09:36:04;97841.22;;;22.15;61.53
59831;BME280;45711;50.108;13.712;2023-06-10T09:38:32;97839.91;;;22.44;60.88
59831;BME280;45711;50.108;13.712;2023-06-10T09:41:05;97842.00;;;22.51;60.50
59831;BME280;45711;50.108;13.712;2023-06-10T09:43:46;97840.81;;;22.32;60.45
59831;BME280;45711;50.108;13.712;2023-06-10T09:46:15;97837.47;;;22.78;59.28
59831;BME280;45711;50.108;13.712;2023-06-10T09:48:47;97837.97;;;22.64;59.72
59831;BME280;45711;50.108;13.712;2023-06-10T09:51:15;97842.69;;;22.28;60.95
59831;BME280;45711;50.108;13.712;2023-06-10T09:54:02;97839.91;;;22.44;60.56
59831;BME280;45711;50.108;13.712;2023-06-10T09:57:00;97838.16;;;22.01;62.25
59831;BME280;45711;50.108;13.712;2023-06-10T09:59:48;97841.88;;;21.93;62.89
59831;BME280;45711;50.108;13.712;2023-06-10T10:03:19;97835.59;;;22.08;62.54
59831;BME280;45711;50.108;13.712;2023-06-10T10:05:51;97844.28;;;22.29;62.47
59831;BME280;45711;50.108;13.712;2023-06-10T10:08:25;97837.00;;;21.51;63.06
59831;BME280;45711;50.108;13.712;2023-06-10T10:10:58;97833.13;;;21.36;64.03
59831;BME280;45711;50.108;13.712;2023-06-10T10:13:37;97827.91;;;21.15;64.24
59831;BME280;45711;50.108;13.712;2023-06-10T10:16:36;97841.72;;;21.22;64.08
59831;BME280;45711;50.108;13.712;2023-06-10T10:19:14;97842.78;;;21.49;62.96
59831;BME280;45711;50.108;13.712;2023-06-10T10:21:52;97838.38;;;21.29;63.29
59831;BME280;45711;50.108;13.712;2023-06-10T10:24:55;97835.53;;;21.09;63.74
59831;BME280;45711;50.108;13.712;2023-06-10T10:27:23;97840.69;;;21.58;62.25
59831;BME280;45711;50.108;13.712;2023-06-10T10:30:00;97839.50;;;21.12;63.70
59831;BME280;45711;50.108;13.712;2023-06-10T10:32:40;97845.00;;;21.44;62.90
59831;BME280;45711;50.108;13.712;2023-06-10T10:35:13;97844.31;;;21.19;64.05
59831;BME280;45711;50.108;13.712;2023-06-10T10:37:44;97843.75;;;21.73;62.32
59831;BME280;45711;50.108;13.712;2023-06-10T10:40:14;97847.44;;;21.33;63.71
59831;BME280;45711;50.108;13.712;2023-06-10T10:42:46;97845.59;;;21.37;63.13
59831;BME280;45711;50.108;13.712;2023-06-10T10:45:14;97851.06;;;21.69;62.89
59831;BME280;45711;50.108;13.712;2023-06-10T10:47:41;97840.69;;;21.58;63.97
59831;BME280;45711;50.108;13.712;2023-06-10T10:50:14;97845.69;;;21.41;64.22
59831;BME280;45711;50.108;13.712;2023-06-10T10:52:53;97849.47;;;21.36;63.88
59831;BME280;45711;50.108;13.712;2023-06-10T10:55:26;97845.59;;;21.37;63.54
59831;BME280;45711;50.108;13.712;2023-06-10T10:58:34;97854.13;;;21.51;63.30
59831;BME280;45711;50.108;13.712;2023-06-10T11:01:10;97846.50;;;21.57;65.23
59831;BME280;45711;50.108;13.712;2023-06-10T11:03:42;97848.34;;;21.69;64.18
59831;BME280;45711;50.108;13.712;2023-06-10T11:06:17;97849.44;;;21.68;63.40
59831;BME280;45711;50.108;13.712;2023-06-10T11:08:52;97851.13;;;21.72;60.95
59831;BME280;45711;50.108;13.712;2023-06-10T11:11:26;97844.09;;;21.71;62.00
59831;BME280;45711;50.108;13.712;2023-06-10T11:14:06;97840.81;;;22.32;60.99
59831;BME280;45711;50.108;13.712;2023-06-10T11:16:48;97842.03;;;22.00;64.17
59831;BME280;45711;50.108;13.712;2023-06-10T11:19:33;97838.53;;;21.99;63.43
59831;BME280;45711;50.108;13.712;2023-06-10T11:22:16;97839.75;;;22.18;64.07
59831;BME280;45711;50.108;13.712;2023-06-10T11:24:52;97826.53;;;21.69;63.24
59831;BME280;45711;50.108;13.712;2023-06-10T11:27:32;97827.84;;;22.10;64.67
59831;BME280;45711;50.108;13.712;2023-06-10T11:30:26;97822.69;;;22.05;65.97
59831;BME280;45711;50.108;13.712;2023-06-10T11:35:57;97817.69;;;22.42;61.90
59831;BME280;45711;50.108;13.712;2023-06-10T11:38:47;97817.16;;;22.01;63.97
59831;BME280;45711;50.108;13.712;2023-06-10T11:41:36;97812.34;;;22.49;61.88
59831;BME280;45711;50.108;13.712;2023-06-10T11:44:29;97803.00;;;22.50;63.51
59831;BME280;45711;50.108;13.712;2023-06-10T11:47:12;97817.44;;;22.12;62.83
59831;BME280;45711;50.108;13.712;2023-06-10T11:49:59;97805.75;;;22.31;62.94
59831;BME280;45711;50.108;13.712;2023-06-10T11:52:44;97819.53;;;22.57;61.51
59831;BME280;45711;50.108;13.712;2023-06-10T11:59:11;97815.88;;;22.69;60.84
59831;BME280;45711;50.108;13.712;2023-06-10T12:02:08;97809.84;;;22.41;60.34
59831;BME280;45711;50.108;13.712;2023-06-10T12:05:20;97811.97;;;22.70;61.05
59831;BME280;45711;50.108;13.712;2023-06-10T14:10:15;97755.41;;;23.32;54.24
59831;BME280;45711;50.108;13.712;2023-06-10T14:13:05;97754.00;;;23.42;53.30
59831;BME280;45711;50.108;13.712;2023-06-10T14:15:41;97754.13;;;23.76;52.72
59831;BME280;45711;50.108;13.712;2023-06-10T14:18:09;97745.69;;;23.62;54.04
59831;BME280;45711;50.108;13.712;2023-06-10T14:20:45;97765.72;;;23.43;54.62
59831;BME280;45711;50.108;13.712;2023-06-10T14:23:18;97766.38;;;23.36;55.04
59831;BME280;45711;50.108;13.712;2023-06-10T14:32:24;97763.78;;;22.97;54.93
59831;BME280;45711;50.108;13.712;2023-06-10T14:35:02;97765.81;;;22.39;57.83
59831;BME280;45711;50.108;13.712;2023-06-10T14:37:28;97762.50;;;22.72;56.84
59831;BME280;45711;50.108;13.712;2023-06-10T14:40:14;97765.75;;;22.77;56.69
59831;BME280;45711;50.108;13.712;2023-06-10T14:46:12;97761.09;;;22.58;58.08
59831;BME280;45711;50.108;13.712;2023-06-10T14:55:44;97764.09;;;22.92;55.96
59831;BME280;45711;50.108;13.712;2023-06-10T14:58:23;97766.09;;;22.76;57.05
59831;BME280;45711;50.108;13.712;2023-06-10T15:08:14;97776.03;;;22.65;57.69
59831;BME280;45711;50.108;13.712;2023-06-10T15:10:59;97773.19;;;22.38;58.83
59831;BME280;45711;50.108;13.712;2023-06-10T15:13:47;97757.28;;;22.82;56.24
59831;BME280;45711;50.108;13.712;2023-06-10T15:16:13;97761.13;;;23.01;55.58
59831;BME280;45711;50.108;13.712;2023-06-10T15:19:03;97762.97;;;22.74;56.21
59831;BME280;45711;50.108;13.712;2023-06-10T15:21:49;97763.44;;;22.99;56.20
59831;BME280;45711;50.108;13.712;2023-06-10T16:38:40;97779.06;;;22.21;59.32
59831;BME280;45711;50.108;13.712;2023-06-10T16:41:23;97772.84;;;22.20;59.02
59831;BME280;45711;50.108;13.712;2023-06-10T16:43:57;97779.19;;;22.67;56.67
59831;BME280;45711;50.108;13.712;2023-06-10T16:46:30;97789.53;;;22.57;56.18
59831;BME280;45711;50.108;13.712;2023-06-10T16:48:58;97792.16;;;22.93;54.39
59831;BME280;45711;50.108;13.712;2023-06-10T16:51:42;97795.47;;;22.63;56.08
59831;BME280;45711;50.108;13.712;2023-06-10T16:54:32;97797.00;;;22.61;56.30
59831;BME280;45711;50.108;13.712;2023-06-10T16:57:27;97806.16;;;22.72;56.53
59831;BME280;45711;50.108;13.712;2023-06-10T17:00:14;97808.63;;;22.57;57.30
59831;BME280;45711;50.108;13.712;2023-06-10T17:02:50;97809.56;;;22.65;57.71
59831;BME280;45711;50.108;13.712;2023-06-10T17:05:32;97807.63;;;22.27;59.01
59831;BME280;45711;50.108;13.712;2023-06-10T17:08:02;97814.66;;;22.47;58.74
59831;BME280;45711;50.108;13.712;2023-06-10T17:10:36;97822.41;;;22.45;57.95
59831;BME280;45711;50.108;13.712;2023-06-10T17:13:07;97816.59;;;22.47;57.89
59831;BME280;45711;50.108;13.712;2023-06-10T17:15:42;97823.19;;;22.46;58.35
59831;BME280;45711;50.108;13.712;2023-06-10T17:18:10;97819.88;;;22.37;55.83
59831;BME280;45711;50.108;13.712;2023-06-10T17:20:46;97820.75;;;22.21;58.91
59831;BME280;45711;50.108;13.712;2023-06-10T17:23:32;97828.06;;;22.17;55.58
59831;BME280;45711;50.108;13.712;2023-06-10T17:29:04;97835.25;;;22.25;54.43
59831;BME280;45711;50.108;13.712;2023-06-10T17:32:42;97831.19;;;22.19;54.53
59831;BME280;45711;50.108;13.712;2023-06-10T17:35:29;97833.50;;;22.17;57.27
59831;BME280;45711;50.108;13.712;2023-06-10T17:37:56;97830.00;;;22.01;55.52
59831;BME280;45711;50.108;13.712;2023-06-10T17:40:31;97825.03;;;21.87;58.80